LECO

A Coruña Airport

Culleredo, Spain
TAF LECO 232000Z 2321/2421 35009KT 9999 SCT025 TX18/2414Z TN10/2405Z PROB40 TEMPO 2323/2408 3000 BR BKN005 TEMPO 2400/2408 0500 FG VV001 PROB30 TEMPO 2415/2421 BKN010
Issued Valid From Valid To
Apr-23 @ 20:00 UTC
(3 hours ago)
Apr-23 @ 21:00 UTC
(2 hours ago)
Apr-24 @ 21:00 UTC
(in 22 hours)
Apr-23 @ 21:00 to Apr-24 @ 21:00
TAF LECO 232000Z 2321/2421 35009KT 9999 SCT025 TX18/2414Z TN10/2405Z
Wind Visibility Clouds
350° at 9 knots 10,000+ meters
  • Scattered at 2,500' AGL
Temporary  (Probability 40%) Apr-23 @ 23:00 to Apr-24 @ 08:00
PROB40 TEMPO 2323/2408 3000 BR BKN005
Visibility Clouds Conditions
2,993 meters
  • Broken at 500' AGL
  • Mist
Temporary Apr-24 @ 00:00 to Apr-24 @ 08:00
TEMPO 2400/2408 0500 FG VV001
Visibility Clouds Conditions
499 meters
  • Vertical visibility at 100' AGL
  • Fog
Temporary  (Probability 30%) Apr-24 @ 15:00 to Apr-24 @ 21:00
PROB30 TEMPO 2415/2421 BKN010
Clouds
  • Broken at 1,000' AGL
TAF LECO 232000Z 2321/2421 35009KT 9999 SCT025 TX18/2414Z TN10/2405Z PROB40 TEMPO 2323/2408 3000 BR BKN005 TEMPO 2400/2408 0500 FG VV001 PROB30 TEMPO 2415/2421 BKN010
Issued Apr-23 @ 20:00 UTC
(3 hours ago)
Valid From Apr-23 @ 21:00 UTC
(2 hours ago)
Valid To Apr-24 @ 21:00 UTC
(in 22 hours)
Apr-23 @ 21:00 - Apr-24 @ 21:00
Wind Visibility
350° at 9 knots 10,000+ meters
Clouds
  • Scattered at 2,500' AGL
Probability 40% Temporary Apr-23 @ 23:00 - Apr-24 @ 08:00
Clouds
  • Broken at 500' AGL
Conditions
  • Mist
Temporary Apr-24 @ 00:00 - Apr-24 @ 08:00
Clouds
  • Vertical visibility at 100' AGL
Conditions
  • Fog
Probability 30% Temporary Apr-24 @ 15:00 - Apr-24 @ 21:00
Clouds
  • Broken at 1,000' AGL